Startpagina
METAR-TAF:

METAR-TAF

Vliegvelden :

EuroAirport Basel-Mulhouse-Freiburg

Bazel-Mulhouse, Frankrijk

breedte: 47-36N, lengte: 007-31E, hoogte: 270 m

Actueel weer

Dit bericht is 34 minuten geleden gemaakt, om 10:30 UTC
Wind 3 kt uit variabele richting
Temperatuur 17°C
Vochtigheid 34%
Druk 1022 hPa
Zicht 10 km of meer
geen wolken onder 1500 m en geen cumulonimbus

METAR: LFSB 051030Z AUTO VRB03KT CAVOK 17/01 Q1022 NOSIG

Tijdstip: 13:04 (11:04 UTC)

Verwachting

Dit bericht is 6 uur en het 4 minuten geleden gemaakt, om 05:00 UTC
Verwachting geldig van 05 om 06 UTC tot 06 om 06 UTC
Wind 3 kt uit variabele richting
Zicht 10 km of meer
geen wolken onder 1500 m en geen cumulonimbus
Wijzigt naar
van 05 om 09 UTC tot 05 om 12 UTC
Wind 5 kt uit het noorden
Wijzigt naar
van 05 om 18 UTC tot 05 om 21 UTC
Wind 4 kt uit het zuiden

TAF: LFSB 050500Z 0506/0606 VRB03KT CAVOK BECMG 0509/0512 36005KT BECMG 0518/0521 18004KT

Waarnemingen en weersverwachtingen van meer dan 4000 vliegvelden (METAR en TAF).

De beschikbare stations zijn de gele en rode punten op de kaart.

Ga met uw muis naar het station om de naam te zien.

Klik dan om waarnemingen en weersverwachtingen te zien.

kaart wijzigen: klik op de groene knoppen met een zwart kruis om in te zoomen, op de groene knop met een streepje om uit te zoomen of op de groene pijlen voor aangrenzende kaarten.


METAR-TAF: